createdAt,value
2022-09-30T00:00:56.236Z,94.60
2022-09-30T00:02:57.685Z,94.79
2022-09-30T00:04:59.163Z,94.12
2022-09-30T00:07:00.744Z,95.10
2022-09-30T00:09:02.547Z,95.26
2022-09-30T00:11:07.916Z,94.97
2022-09-30T00:13:09.347Z,94.87
2022-09-30T00:15:11.096Z,95.62
2022-09-30T00:17:12.530Z,95.56
2022-09-30T00:19:14.457Z,95.07
2022-09-30T00:21:17.178Z,95.33
2022-09-30T00:23:19.648Z,95.71
2022-09-30T00:25:21.080Z,95.82
2022-09-30T00:27:22.558Z,95.79
2022-09-30T00:29:24.034Z,96.31
2022-09-30T00:31:30.138Z,95.73
2022-09-30T00:33:31.851Z,95.49
2022-09-30T00:35:33.741Z,94.78
2022-09-30T00:37:35.205Z,94.05
2022-09-30T00:39:37.531Z,93.73
2022-09-30T00:41:39.498Z,94.18
2022-09-30T00:43:51.503Z,94.21
2022-09-30T00:45:59.234Z,94.63
2022-09-30T00:48:11.051Z,93.97
2022-09-30T00:50:12.505Z,94.28
2022-09-30T00:52:14.016Z,94.36
2022-09-30T00:54:21.366Z,94.43
2022-09-30T00:56:31.491Z,94.09
2022-09-30T00:58:40.006Z,94.08
2022-09-30T01:00:41.643Z,93.97
2022-09-30T01:02:43.169Z,93.93
2022-09-30T01:04:46.352Z,93.59
2022-09-30T01:06:48.499Z,93.10
2022-09-30T01:08:50.583Z,92.64
2022-09-30T01:10:52.016Z,91.92
2022-09-30T01:12:53.822Z,92.33
2022-09-30T01:14:58.041Z,92.70
2022-09-30T01:17:18.319Z,91.79
2022-09-30T01:19:36.653Z,92.02
2022-09-30T01:22:06.910Z,92.87
2022-09-30T01:25:00.565Z,93.56
2022-09-30T01:27:07.814Z,93.74
2022-09-30T01:29:48.320Z,94.80
2022-09-30T01:32:19.579Z,94.37
2022-09-30T01:34:37.717Z,94.84
2022-09-30T01:37:20.429Z,94.88
2022-09-30T01:39:27.255Z,95.73
2022-09-30T01:41:54.580Z,95.80
2022-09-30T01:44:12.305Z,95.70
2022-09-30T01:46:34.142Z,95.87
2022-09-30T01:48:49.190Z,96.17
2022-09-30T01:50:56.594Z,95.88
2022-09-30T01:53:07.967Z,96.21
2022-09-30T01:55:14.062Z,96.25
2022-09-30T01:57:28.786Z,97.06
2022-09-30T01:59:37.783Z,97.19
2022-09-30T02:01:48.174Z,97.54
2022-09-30T02:03:55.819Z,97.37
2022-09-30T02:06:04.127Z,97.88
2022-09-30T02:08:44.273Z,98.00
2022-09-30T02:10:53.196Z,97.53
2022-09-30T02:13:22.002Z,97.37
2022-09-30T02:15:30.914Z,97.19
2022-09-30T02:17:40.611Z,98.21
2022-09-30T02:19:59.109Z,97.54
2022-09-30T02:22:10.468Z,97.82
2022-09-30T02:24:17.254Z,97.70
2022-09-30T02:26:26.917Z,98.22
2022-09-30T02:28:29.273Z,98.36
2022-09-30T02:30:35.842Z,98.26
2022-09-30T02:33:06.847Z,98.10
2022-09-30T02:35:23.596Z,98.25
2022-09-30T02:37:32.024Z,98.21
2022-09-30T02:40:00.438Z,98.25
2022-09-30T02:42:12.363Z,98.11
2022-09-30T02:44:14.890Z,97.95
2022-09-30T02:46:48.785Z,97.46
2022-09-30T02:49:01.631Z,97.94
2022-09-30T02:51:18.485Z,97.72
2022-09-30T02:53:32.627Z,97.13
2022-09-30T02:55:40.249Z,97.08
2022-09-30T02:58:00.872Z,96.70
2022-09-30T03:00:03.509Z,96.60
2022-09-30T03:02:05.620Z,96.90
2022-09-30T03:04:10.000Z,96.58
2022-09-30T03:06:12.390Z,97.50
2022-09-30T03:08:14.097Z,97.55
2022-09-30T03:10:18.744Z,97.45
2022-09-30T03:12:32.828Z,96.95
2022-09-30T03:15:03.501Z,96.05
2022-09-30T03:17:38.880Z,96.95
2022-09-30T03:19:49.245Z,96.27
2022-09-30T03:22:24.669Z,96.19
2022-09-30T03:24:47.161Z,96.21
2022-09-30T03:27:00.007Z,96.00
2022-09-30T03:29:24.171Z,96.07
2022-09-30T03:31:39.321Z,96.28
2022-09-30T03:34:09.274Z,97.05
2022-09-30T03:36:41.996Z,97.01
2022-09-30T03:39:07.969Z,97.03
2022-09-30T03:41:22.750Z,97.79
2022-09-30T03:43:36.629Z,97.40
2022-09-30T03:46:05.087Z,98.44
2022-09-30T03:48:11.459Z,98.17
2022-09-30T03:50:19.025Z,98.30
2022-09-30T03:52:21.313Z,98.23
2022-09-30T03:54:22.960Z,97.73
2022-09-30T03:56:30.050Z,97.71
2022-09-30T03:58:31.492Z,98.33
2022-09-30T04:00:33.212Z,98.46
2022-09-30T04:02:36.742Z,98.38
2022-09-30T04:04:38.176Z,98.22
2022-09-30T04:06:39.632Z,98.22
2022-09-30T04:08:41.094Z,98.40
2022-09-30T04:10:46.615Z,98.21
2022-09-30T04:12:48.096Z,97.85
2022-09-30T04:14:49.626Z,98.42
2022-09-30T04:16:53.954Z,97.51
2022-09-30T04:18:56.786Z,97.74
2022-09-30T04:20:59.209Z,97.68
2022-09-30T04:23:01.658Z,97.31
2022-09-30T04:25:03.216Z,97.18
2022-09-30T04:27:04.950Z,96.68
2022-09-30T04:29:06.378Z,96.44
2022-09-30T04:31:08.484Z,95.84
2022-09-30T04:33:10.594Z,95.10
2022-09-30T04:35:13.583Z,92.91
2022-09-30T04:37:15.698Z,92.61
2022-09-30T04:39:17.237Z,90.94
2022-09-30T04:41:18.954Z,89.92
2022-09-30T04:43:22.300Z,89.96
2022-09-30T04:45:24.510Z,90.60
2022-09-30T04:47:26.000Z,90.41
2022-09-30T04:49:27.472Z,90.39
2022-09-30T04:51:29.981Z,89.33
2022-09-30T04:53:31.406Z,89.41
2022-09-30T04:55:32.963Z,89.28
2022-09-30T04:57:34.456Z,89.23
2022-09-30T04:59:36.741Z,88.99
2022-09-30T05:01:39.395Z,87.99
2022-09-30T05:03:41.583Z,87.73
2022-09-30T05:05:44.457Z,87.72
2022-09-30T05:07:46.013Z,88.35
2022-09-30T05:09:47.715Z,89.99
2022-09-30T05:11:49.504Z,91.39
2022-09-30T05:13:51.084Z,91.84
2022-09-30T05:15:53.002Z,90.84
2022-09-30T05:17:54.505Z,90.26
2022-09-30T05:19:56.225Z,90.29
2022-09-30T05:21:57.816Z,91.15
2022-09-30T05:23:59.266Z,91.74
2022-09-30T05:26:01.773Z,91.92
2022-09-30T05:28:03.210Z,92.24
2022-09-30T05:30:06.560Z,92.43
2022-09-30T05:32:07.975Z,92.89
2022-09-30T05:34:09.534Z,93.80
2022-09-30T05:36:14.475Z,93.66
2022-09-30T05:38:15.915Z,94.04
2022-09-30T05:40:17.689Z,94.25
2022-09-30T05:42:19.115Z,93.96
2022-09-30T05:44:21.486Z,94.80
2022-09-30T05:46:22.981Z,94.10
2022-09-30T05:48:25.683Z,95.04
2022-09-30T05:50:27.526Z,95.41
2022-09-30T05:52:28.984Z,95.08
2022-09-30T05:54:30.412Z,95.18
2022-09-30T05:56:31.906Z,95.60
2022-09-30T05:58:33.683Z,95.83
2022-09-30T06:00:35.111Z,96.07
2022-09-30T06:02:38.539Z,96.07
2022-09-30T06:04:40.123Z,96.25
2022-09-30T06:06:41.580Z,96.99
2022-09-30T06:08:43.806Z,96.83
2022-09-30T06:10:45.613Z,96.68
2022-09-30T06:12:47.035Z,97.19
2022-09-30T06:14:48.508Z,97.81
2022-09-30T06:16:50.064Z,97.33
2022-09-30T06:18:51.830Z,96.78
2022-09-30T06:20:57.978Z,95.68
2022-09-30T06:23:00.575Z,96.21
2022-09-30T06:25:06.491Z,95.97
2022-09-30T06:27:08.162Z,95.51
2022-09-30T06:29:09.731Z,96.17
2022-09-30T06:31:11.640Z,96.04
2022-09-30T06:33:14.809Z,96.21
2022-09-30T06:35:16.879Z,95.66
2022-09-30T06:37:18.569Z,96.13
2022-09-30T06:39:20.734Z,96.75
2022-09-30T06:41:27.507Z,96.40
2022-09-30T06:43:29.302Z,96.50
2022-09-30T06:45:33.412Z,97.16
2022-09-30T06:47:35.015Z,97.55
2022-09-30T06:49:46.315Z,97.60
2022-09-30T06:51:51.367Z,97.76
2022-09-30T06:53:54.146Z,97.40
2022-09-30T06:55:57.148Z,97.38
2022-09-30T06:57:58.971Z,98.45
2022-09-30T07:00:01.334Z,97.47
2022-09-30T07:02:02.882Z,97.64
2022-09-30T07:04:09.460Z,97.45
2022-09-30T07:06:13.927Z,97.93
2022-09-30T07:08:15.844Z,98.17
2022-09-30T07:10:17.348Z,97.85
2022-09-30T07:12:18.769Z,98.02
2022-09-30T07:14:20.972Z,98.37
2022-09-30T07:16:22.512Z,98.65
2022-09-30T07:18:25.244Z,97.92
2022-09-30T07:20:26.667Z,97.87
2022-09-30T07:22:29.960Z,98.19
2022-09-30T07:24:31.595Z,98.01
2022-09-30T07:26:33.384Z,98.45
2022-09-30T07:28:36.433Z,98.21
2022-09-30T07:30:43.485Z,98.40
2022-09-30T07:32:44.934Z,97.50
2022-09-30T07:34:46.428Z,97.67
2022-09-30T07:36:49.431Z,97.35
2022-09-30T07:38:51.879Z,97.23
2022-09-30T07:41:04.959Z,97.00
2022-09-30T07:43:06.373Z,96.66
2022-09-30T07:45:08.344Z,96.60
2022-09-30T07:47:14.929Z,96.54
2022-09-30T07:49:24.609Z,96.09
2022-09-30T07:51:30.173Z,95.60
2022-09-30T07:53:31.651Z,95.45
2022-09-30T07:55:34.038Z,95.52
2022-09-30T07:57:35.715Z,94.96
2022-09-30T07:59:39.983Z,94.86
2022-09-30T08:01:41.804Z,94.75
2022-09-30T08:03:45.017Z,94.11
2022-09-30T08:05:48.495Z,93.04
2022-09-30T08:07:49.928Z,92.95
2022-09-30T08:09:51.462Z,92.77
2022-09-30T08:11:53.804Z,92.60
2022-09-30T08:13:56.868Z,92.06
2022-09-30T08:15:58.397Z,92.07
2022-09-30T08:17:59.854Z,92.39
2022-09-30T08:20:01.489Z,92.34
2022-09-30T08:24:10.634Z,91.87
2022-09-30T08:26:13.083Z,91.66
2022-09-30T08:28:14.979Z,91.20
2022-09-30T08:30:16.817Z,91.40
2022-09-30T08:32:18.299Z,90.73
2022-09-30T08:34:19.826Z,90.25
2022-09-30T08:36:24.107Z,89.81
2022-09-30T08:38:25.553Z,89.59
2022-09-30T08:40:39.239Z,89.50
2022-09-30T08:42:51.635Z,88.79
2022-09-30T08:45:08.644Z,88.48
2022-09-30T08:47:10.008Z,88.55
2022-09-30T08:49:35.575Z,88.10
2022-09-30T08:51:42.464Z,87.61
2022-09-30T08:53:46.851Z,87.05
2022-09-30T08:55:48.401Z,85.66
2022-09-30T08:57:51.816Z,86.11
2022-09-30T08:59:59.226Z,85.96
2022-09-30T09:02:20.970Z,86.47
2022-09-30T09:04:22.502Z,85.57
2022-09-30T09:06:36.795Z,85.19
2022-09-30T09:08:58.457Z,85.09
2022-09-30T09:11:17.861Z,84.92
2022-09-30T09:13:25.174Z,84.64
2022-09-30T09:15:47.932Z,84.33
2022-09-30T09:18:24.311Z,83.92
2022-09-30T09:20:37.695Z,83.63
2022-09-30T09:22:39.342Z,83.50
2022-09-30T09:24:46.154Z,83.37
2022-09-30T09:26:49.453Z,82.97
2022-09-30T09:29:12.749Z,83.19
2022-09-30T09:31:17.660Z,83.09
2022-09-30T09:33:22.926Z,82.87
2022-09-30T09:35:30.382Z,82.47
2022-09-30T09:38:24.979Z,81.92
2022-09-30T09:40:44.963Z,80.45
2022-09-30T09:43:05.276Z,80.99
2022-09-30T09:45:18.308Z,80.51
2022-09-30T09:47:20.196Z,80.57
2022-09-30T09:49:23.437Z,80.57
2022-09-30T09:51:32.643Z,80.06
2022-09-30T09:53:47.213Z,79.79
2022-09-30T09:55:54.261Z,79.54
2022-09-30T09:58:06.959Z,80.16
2022-09-30T10:00:48.048Z,79.21
2022-09-30T10:03:06.519Z,78.32
2022-09-30T10:05:26.206Z,77.38
2022-09-30T10:07:29.129Z,77.83
2022-09-30T10:09:35.091Z,77.55
2022-09-30T10:11:36.543Z,77.43
2022-09-30T10:13:38.014Z,76.18
2022-09-30T10:15:42.767Z,76.37
2022-09-30T10:17:52.365Z,75.28
2022-09-30T10:19:59.799Z,75.24
2022-09-30T10:22:11.865Z,74.98
2022-09-30T10:24:31.364Z,75.00
2022-09-30T10:26:47.726Z,74.02
2022-09-30T10:29:01.143Z,73.28
2022-09-30T10:31:23.928Z,73.24
2022-09-30T10:33:33.980Z,72.85
2022-09-30T10:35:35.454Z,71.68
2022-09-30T10:37:37.069Z,71.16
2022-09-30T10:39:41.794Z,70.28
2022-09-30T10:41:43.260Z,69.35
2022-09-30T10:43:51.615Z,68.13
2022-09-30T10:46:20.910Z,67.18
2022-09-30T10:48:20.654Z,66.42
2022-09-30T10:50:26.829Z,64.17
2022-09-30T10:52:33.110Z,64.33
2022-09-30T10:54:45.311Z,64.29
2022-09-30T10:56:52.021Z,62.22
2022-09-30T10:58:56.459Z,59.04
2022-09-30T11:01:16.281Z,58.20
2022-09-30T11:03:25.024Z,57.08
2022-09-30T11:05:34.133Z,56.92
2022-09-30T11:07:54.868Z,57.20
2022-09-30T11:10:07.793Z,56.62
2022-09-30T11:12:36.805Z,57.02
2022-09-30T11:14:56.527Z,57.42
2022-09-30T11:17:09.440Z,56.13
2022-09-30T11:19:17.359Z,54.68
2022-09-30T11:21:43.324Z,54.95
2022-09-30T11:23:58.028Z,52.87
2022-09-30T11:25:59.454Z,52.07
2022-09-30T11:28:22.180Z,52.19
2022-09-30T11:30:38.718Z,52.73
2022-09-30T11:33:04.378Z,52.71
2022-09-30T11:35:15.168Z,53.39
2022-09-30T11:37:40.686Z,52.53
2022-09-30T11:40:07.279Z,50.57
2022-09-30T11:42:22.372Z,51.99
2022-09-30T11:44:37.663Z,53.23
2022-09-30T11:47:04.877Z,51.29
2022-09-30T11:49:34.281Z,51.25
2022-09-30T11:52:00.891Z,50.88
2022-09-30T11:54:39.221Z,51.50
2022-09-30T11:56:50.423Z,53.32
2022-09-30T11:58:57.506Z,52.41
2022-09-30T12:01:10.140Z,52.66
2022-09-30T12:03:22.888Z,53.93
2022-09-30T12:05:30.338Z,55.50
2022-09-30T12:07:46.128Z,56.41
2022-09-30T12:10:03.520Z,56.99
2022-09-30T12:12:16.067Z,55.48
2022-09-30T12:14:26.211Z,54.71
2022-09-30T12:16:32.025Z,55.78
2022-09-30T12:18:40.064Z,55.23
2022-09-30T12:23:19.731Z,56.35
2022-09-30T12:25:26.821Z,57.20
2022-09-30T12:27:48.486Z,55.84
2022-09-30T12:30:19.127Z,55.09
2022-09-30T12:32:54.684Z,56.35
2022-09-30T12:35:02.284Z,57.17
2022-09-30T12:37:37.218Z,57.21
2022-09-30T12:39:38.634Z,56.73
2022-09-30T12:41:49.302Z,57.51
2022-09-30T12:44:16.721Z,57.96
2022-09-30T12:46:33.160Z,59.04
2022-09-30T12:48:46.154Z,58.70
2022-09-30T12:50:54.700Z,58.39
2022-09-30T12:52:57.496Z,58.25
2022-09-30T12:55:05.719Z,58.06
2022-09-30T12:57:09.262Z,57.33
2022-09-30T12:59:11.341Z,57.16
2022-09-30T13:01:18.988Z,57.42
2022-09-30T13:03:20.573Z,58.64
2022-09-30T13:05:31.251Z,56.58
2022-09-30T13:07:33.411Z,56.24
2022-09-30T13:09:37.494Z,57.38
2022-09-30T13:11:44.183Z,57.73
2022-09-30T13:14:15.335Z,56.36
2022-09-30T13:16:56.322Z,57.27
2022-09-30T13:19:01.797Z,57.49
2022-09-30T13:21:06.650Z,57.64
2022-09-30T13:23:47.205Z,57.47
2022-09-30T13:25:54.885Z,57.43
2022-09-30T13:28:14.559Z,56.45
2022-09-30T13:30:16.075Z,58.49
2022-09-30T13:32:32.899Z,57.44
2022-09-30T13:34:49.525Z,57.80
2022-09-30T13:36:50.894Z,59.01
2022-09-30T13:39:07.437Z,59.19
2022-09-30T13:41:22.655Z,60.23
2022-09-30T13:43:32.444Z,60.18
2022-09-30T13:45:39.579Z,59.46
2022-09-30T13:47:49.457Z,59.82
2022-09-30T13:50:14.609Z,59.98
2022-09-30T13:52:26.039Z,59.57
2022-09-30T13:54:34.063Z,59.39
2022-09-30T13:56:40.136Z,58.45
2022-09-30T13:59:06.653Z,58.37
2022-09-30T14:01:45.367Z,57.86
2022-09-30T14:03:55.574Z,58.23
2022-09-30T14:06:19.331Z,57.45
2022-09-30T14:08:26.832Z,58.32
2022-09-30T14:11:02.510Z,58.74
2022-09-30T14:13:18.892Z,59.31
2022-09-30T14:15:21.058Z,58.65
2022-09-30T14:17:37.353Z,58.86
2022-09-30T14:19:58.347Z,59.09
2022-09-30T14:22:05.783Z,59.49
2022-09-30T14:24:15.012Z,60.43
2022-09-30T14:26:58.446Z,59.31
2022-09-30T14:29:40.727Z,58.34
2022-09-30T14:31:46.603Z,57.82
2022-09-30T14:33:50.143Z,57.62
2022-09-30T14:35:54.513Z,57.98
2022-09-30T14:38:13.064Z,59.04
2022-09-30T14:40:19.202Z,58.68
2022-09-30T14:42:31.995Z,57.80
2022-09-30T14:44:36.194Z,58.43
2022-09-30T14:46:40.957Z,58.38
2022-09-30T14:48:45.707Z,58.09
2022-09-30T14:51:04.165Z,57.31
2022-09-30T14:53:05.671Z,57.66
2022-09-30T14:55:23.407Z,58.87
2022-09-30T14:57:25.196Z,58.04
2022-09-30T14:59:29.673Z,57.20
2022-09-30T15:01:35.317Z,57.51
2022-09-30T15:03:40.043Z,58.53
2022-09-30T15:05:41.579Z,58.26
2022-09-30T15:07:43.092Z,57.84
2022-09-30T15:09:46.152Z,58.83
2022-09-30T15:11:48.460Z,58.28
2022-09-30T15:13:53.411Z,57.62
2022-09-30T15:15:55.069Z,56.06
2022-09-30T15:17:56.918Z,56.45
2022-09-30T15:19:59.085Z,57.03
2022-09-30T15:22:06.340Z,57.41
2022-09-30T15:24:10.958Z,57.46
2022-09-30T15:26:13.401Z,57.76
2022-09-30T15:28:14.904Z,58.71
2022-09-30T15:30:17.194Z,58.51
2022-09-30T15:32:23.465Z,59.19
2022-09-30T15:34:25.970Z,58.16
2022-09-30T15:36:27.660Z,58.98
2022-09-30T15:38:31.474Z,58.84
2022-09-30T15:40:49.944Z,59.87
2022-09-30T15:43:02.832Z,57.89
2022-09-30T15:45:32.070Z,58.95
2022-09-30T15:48:03.928Z,59.40
2022-09-30T15:50:05.735Z,58.90
2022-09-30T15:52:30.649Z,58.83
2022-09-30T15:54:37.955Z,60.83
2022-09-30T15:56:39.401Z,60.53
2022-09-30T15:58:42.346Z,61.03
2022-09-30T16:00:45.314Z,60.89
2022-09-30T16:02:46.903Z,60.53
2022-09-30T16:04:53.361Z,60.63
2022-09-30T16:07:08.733Z,60.52
2022-09-30T16:09:32.297Z,60.11
2022-09-30T16:11:42.079Z,60.22
2022-09-30T16:13:45.267Z,61.02
2022-09-30T16:15:47.934Z,61.77
2022-09-30T16:17:50.048Z,60.65
2022-09-30T16:19:57.968Z,61.25
2022-09-30T16:22:00.168Z,61.70
2022-09-30T16:24:01.685Z,61.72
2022-09-30T16:26:13.310Z,62.09
2022-09-30T16:28:15.424Z,62.02
2022-09-30T16:30:19.892Z,63.34
2022-09-30T16:32:21.692Z,62.82
2022-09-30T16:34:27.364Z,63.47
2022-09-30T16:36:29.111Z,63.69
2022-09-30T16:38:30.649Z,63.62
2022-09-30T16:40:33.476Z,64.16
2022-09-30T16:42:34.892Z,63.82
2022-09-30T16:44:37.707Z,63.88
2022-09-30T16:46:39.378Z,63.98
2022-09-30T16:48:40.879Z,64.68
2022-09-30T16:50:53.320Z,64.57
2022-09-30T16:52:55.079Z,64.55
2022-09-30T16:54:56.498Z,64.41
2022-09-30T16:57:00.335Z,65.25
2022-09-30T16:59:03.179Z,65.22
2022-09-30T17:01:04.942Z,66.53
2022-09-30T17:03:06.712Z,66.89
2022-09-30T17:05:13.231Z,66.05
2022-09-30T17:07:14.885Z,66.75
2022-09-30T17:09:16.353Z,67.31
2022-09-30T17:11:19.263Z,68.03
2022-09-30T17:13:20.710Z,68.49
2022-09-30T17:15:22.582Z,68.12
2022-09-30T17:17:24.698Z,68.68
2022-09-30T17:19:30.020Z,68.54
2022-09-30T17:21:31.441Z,69.90
2022-09-30T17:23:32.993Z,70.25
2022-09-30T17:25:40.045Z,70.55
2022-09-30T17:27:41.575Z,71.00
2022-09-30T17:29:43.012Z,71.79
2022-09-30T17:31:44.542Z,72.00
2022-09-30T17:33:45.994Z,71.89
2022-09-30T17:36:01.147Z,72.19
2022-09-30T17:38:09.154Z,72.79
2022-09-30T17:40:29.233Z,72.82
2022-09-30T17:42:49.067Z,73.13
2022-09-30T17:44:51.232Z,73.46
2022-09-30T17:47:00.100Z,73.25
2022-09-30T17:49:01.549Z,73.34
2022-09-30T17:51:03.040Z,73.87
2022-09-30T17:53:05.934Z,73.95
2022-09-30T17:55:07.645Z,74.14
2022-09-30T17:57:09.116Z,74.35
2022-09-30T17:59:10.572Z,74.19
2022-09-30T18:01:12.169Z,74.33
2022-09-30T18:03:13.735Z,74.34
2022-09-30T18:05:15.650Z,74.13
2022-09-30T18:07:17.073Z,74.53
2022-09-30T18:09:18.972Z,74.48
2022-09-30T18:11:26.019Z,74.28
2022-09-30T18:13:28.092Z,74.58
2022-09-30T18:15:29.706Z,74.52
2022-09-30T18:17:31.200Z,74.48
2022-09-30T18:19:33.145Z,74.62
2022-09-30T18:21:36.571Z,74.84
2022-09-30T18:23:38.083Z,74.69
2022-09-30T18:25:41.741Z,74.95
2022-09-30T18:27:43.226Z,74.91
2022-09-30T18:29:44.718Z,75.14
2022-09-30T18:31:46.314Z,75.00
2022-09-30T18:33:51.578Z,75.17
2022-09-30T18:35:53.237Z,74.94
2022-09-30T18:37:54.752Z,75.02
2022-09-30T18:39:56.181Z,75.14
2022-09-30T18:41:57.665Z,75.19
2022-09-30T18:44:02.559Z,75.10
2022-09-30T18:46:05.385Z,75.38
2022-09-30T18:48:07.725Z,75.69
2022-09-30T18:50:10.941Z,75.47
2022-09-30T18:52:12.459Z,75.35
2022-09-30T18:54:16.028Z,75.54
2022-09-30T18:56:21.718Z,75.51
2022-09-30T18:58:23.172Z,75.51
2022-09-30T19:00:24.688Z,75.44
2022-09-30T19:02:27.202Z,75.45
2022-09-30T19:04:29.049Z,75.61
2022-09-30T19:06:30.731Z,75.69
2022-09-30T19:08:32.216Z,75.61
2022-09-30T19:10:34.180Z,75.61
2022-09-30T19:12:37.895Z,75.79
2022-09-30T19:14:39.386Z,75.67
2022-09-30T19:16:42.003Z,75.79
2022-09-30T19:18:44.082Z,75.98
2022-09-30T19:20:45.573Z,75.87
2022-09-30T19:22:48.050Z,75.96
2022-09-30T19:24:49.501Z,75.86
2022-09-30T19:26:52.254Z,75.96
2022-09-30T19:28:54.812Z,75.72
2022-09-30T19:30:56.302Z,76.18
2022-09-30T19:33:01.303Z,75.93
2022-09-30T19:35:06.681Z,75.79
2022-09-30T19:37:16.274Z,75.88
2022-09-30T19:39:19.896Z,75.70
2022-09-30T19:41:23.786Z,75.77
2022-09-30T19:43:25.733Z,76.48
2022-09-30T19:45:28.076Z,76.04
2022-09-30T19:47:34.119Z,75.53
2022-09-30T19:49:36.070Z,75.41
2022-09-30T19:51:37.674Z,75.80
2022-09-30T19:53:42.570Z,75.78
2022-09-30T19:55:50.757Z,75.33
2022-09-30T19:57:52.493Z,75.41
2022-09-30T19:59:53.918Z,76.15
2022-09-30T20:01:55.516Z,75.65
2022-09-30T20:03:58.108Z,75.99
2022-09-30T20:06:05.773Z,75.56
2022-09-30T20:08:07.246Z,75.59
2022-09-30T20:10:09.226Z,75.49
2022-09-30T20:12:10.971Z,75.23
2022-09-30T20:14:30.842Z,75.63
2022-09-30T20:16:32.326Z,75.74
2022-09-30T20:18:35.069Z,75.34
2022-09-30T20:20:37.189Z,75.91
2022-09-30T20:22:38.861Z,75.75
2022-09-30T20:24:40.397Z,75.56
2022-09-30T20:26:43.368Z,75.35
2022-09-30T20:28:44.800Z,75.46
2022-09-30T20:30:47.038Z,75.44
2022-09-30T20:32:48.508Z,75.70
2022-09-30T20:34:49.971Z,76.24
2022-09-30T20:36:51.416Z,75.86
2022-09-30T20:38:54.268Z,75.89
2022-09-30T20:40:57.154Z,75.26
2022-09-30T20:43:04.036Z,75.02
2022-09-30T20:45:10.296Z,75.29
2022-09-30T20:47:12.008Z,75.40
2022-09-30T20:49:13.445Z,75.47
2022-09-30T20:51:18.169Z,76.51
2022-09-30T20:53:20.342Z,76.35
2022-09-30T20:55:21.790Z,76.11
2022-09-30T20:57:23.233Z,76.17
2022-09-30T20:59:24.751Z,75.63
2022-09-30T21:01:26.546Z,76.18
2022-09-30T21:03:30.065Z,75.95
2022-09-30T21:05:31.904Z,76.42
2022-09-30T21:07:35.427Z,75.71
2022-09-30T21:09:36.850Z,76.38
2022-09-30T21:11:40.991Z,76.64
2022-09-30T21:13:46.918Z,76.38
2022-09-30T21:15:57.367Z,76.73
2022-09-30T21:17:59.345Z,76.94
2022-09-30T21:20:01.108Z,76.63
2022-09-30T21:22:02.544Z,75.92
2022-09-30T21:24:04.138Z,76.42
2022-09-30T21:26:07.974Z,76.80
2022-09-30T21:28:09.464Z,76.15
2022-09-30T21:30:11.556Z,75.76
2022-09-30T21:32:13.158Z,75.62
2022-09-30T21:34:14.861Z,75.61
2022-09-30T21:36:16.313Z,75.39
2022-09-30T21:38:18.164Z,74.98
2022-09-30T21:40:19.610Z,75.20
2022-09-30T21:42:22.332Z,75.13
2022-09-30T21:44:25.587Z,75.08
2022-09-30T21:46:27.141Z,75.00
2022-09-30T21:48:30.460Z,74.72
2022-09-30T21:50:34.885Z,75.15
2022-09-30T21:52:38.034Z,74.85
2022-09-30T21:54:40.099Z,74.24
2022-09-30T21:56:42.931Z,74.29
2022-09-30T21:58:44.491Z,74.33
2022-09-30T22:00:47.038Z,73.92
2022-09-30T22:02:48.612Z,74.05
2022-09-30T22:04:50.052Z,74.21
2022-09-30T22:06:51.552Z,73.90
2022-09-30T22:08:52.972Z,73.39
2022-09-30T22:10:54.459Z,73.18
2022-09-30T22:12:55.913Z,73.02
2022-09-30T22:14:57.316Z,73.05
2022-09-30T22:16:59.415Z,72.74
2022-09-30T22:19:02.777Z,72.46
2022-09-30T22:21:07.451Z,71.84
2022-09-30T22:23:08.913Z,71.95
2022-09-30T22:25:10.439Z,71.81
2022-09-30T22:27:12.069Z,71.96
2022-09-30T22:29:13.652Z,71.78
2022-09-30T22:31:20.181Z,71.98
2022-09-30T22:33:40.398Z,71.87
2022-09-30T22:36:00.878Z,72.16
2022-09-30T22:38:17.502Z,71.59
2022-09-30T22:40:18.994Z,71.53
2022-09-30T22:42:20.434Z,71.30
2022-09-30T22:44:25.428Z,71.41
2022-09-30T22:46:26.930Z,71.20
2022-09-30T22:48:30.036Z,70.75
2022-09-30T22:50:35.408Z,71.01
2022-09-30T22:52:36.851Z,71.28
2022-09-30T22:54:38.333Z,70.88
2022-09-30T22:56:39.765Z,70.91
2022-09-30T22:58:41.189Z,70.96
2022-09-30T23:00:52.839Z,70.96
2022-09-30T23:02:55.479Z,71.13
2022-09-30T23:04:56.997Z,71.13
2022-09-30T23:06:58.532Z,70.82
2022-09-30T23:09:02.842Z,71.04
2022-09-30T23:11:04.356Z,71.14
2022-09-30T23:13:08.897Z,71.06
2022-09-30T23:15:10.540Z,71.28
2022-09-30T23:17:13.068Z,71.02
2022-09-30T23:19:14.543Z,71.26
2022-09-30T23:21:18.495Z,71.27
2022-09-30T23:23:20.071Z,71.56
2022-09-30T23:25:21.542Z,71.18
2022-09-30T23:27:23.030Z,71.36
2022-09-30T23:29:24.846Z,71.32
2022-09-30T23:31:26.894Z,71.34
2022-09-30T23:33:28.406Z,71.34
2022-09-30T23:35:29.856Z,71.37
2022-09-30T23:37:31.327Z,71.33
2022-09-30T23:39:32.797Z,71.40
2022-09-30T23:41:34.796Z,71.57
2022-09-30T23:43:37.103Z,71.48
2022-09-30T23:45:38.740Z,71.43
2022-09-30T23:47:40.185Z,71.39
2022-09-30T23:49:42.019Z,71.63
2022-09-30T23:51:43.622Z,71.51
2022-09-30T23:53:45.316Z,71.41
2022-09-30T23:55:58.996Z,71.36
2022-09-30T23:58:00.475Z,71.48
